Fahri Eksioglu — TCUH — position and weather

sailwx.info

Track history (hours):
 
Tides and Currents Weather Stations Pressure Air Temp Water Temp Dewpoint Dewpoint Depression Visibility Wind Speed Wind Dir Waves Ship Positions

Fahri Eksioglu

Last reported at 2017-Mar-26 09:33 UTC. Time now 2017-Mar-29 09:09 UTC.
Position N 38°21' E 023°49'.

Length 87 m; draft 5.3 m.

Type: Cargo ship. MMSI: 271000450.

Date/timePositionNaut miles runAvg speedWind from/ knotsBaromVisibWave heightAir tempDewpointWater temp
2017-Mar-26 09:33N 38°21' E 023°49'20 9.4
2017-Mar-26 07:29N 38°09' E 024°08'9 9.6
2017-Mar-26 06:31N 38°00' E 024°12'  
2017-Mar-18 16:18N 40°17' E 025°15'910.0
2017-Mar-18 15:22N 40°22' E 025°05'10 9.7
2017-Mar-18 14:21N 40°26' E 024°53'910.0
2017-Mar-18 13:26N 40°30' E 024°42'8 9.7
2017-Mar-18 12:33N 40°34' E 024°33'10 9.6
2017-Mar-18 11:33N 40°42' E 024°25'10 9.8
2017-Mar-18 10:33N 40°51' E 024°28'6 5.7
2017-Mar-18 09:33N 40°57' E 024°29'0 0.0
2017-Mar-18 08:32N 40°57' E 024°29'0 0.0
2017-Mar-18 07:32N 40°57' E 024°29'0 0.0
2017-Mar-18 06:32N 40°57' E 024°29'0 0.0
2017-Mar-18 05:31N 40°57' E 024°29'0 0.0
2017-Mar-18 04:32N 40°57' E 024°29'0 0.0
2017-Mar-18 03:31N 40°57' E 024°29'0 0.0
2017-Mar-18 02:30N 40°57' E 024°29'0 0.0
2017-Mar-18 01:28N 40°57' E 024°29'0 0.0
2017-Mar-18 00:33N 40°57' E 024°29'0 0.0
2017-Mar-17 23:26N 40°57' E 024°29'0 0.0
2017-Mar-17 22:33N 40°57' E 024°29'0 0.0
2017-Mar-17 21:32N 40°57' E 024°29'0 0.0
2017-Mar-17 20:29N 40°57' E 024°29'0 0.0
2017-Mar-17 19:33N 40°57' E 024°29'0 0.0
2017-Mar-17 18:32N 40°57' E 024°29'0 0.0
2017-Mar-17 17:28N 40°57' E 024°29'0 0.0
2017-Mar-17 16:30N 40°57' E 024°29'0 0.0
2017-Mar-17 15:29N 40°57' E 024°29'0 0.0
2017-Mar-17 14:30N 40°57' E 024°29'0 0.0
2017-Mar-17 13:32N 40°57' E 024°29'0 0.0
2017-Mar-17 12:33N 40°57' E 024°29'0 0.0
2017-Mar-17 11:21N 40°57' E 024°29'0 0.0
2017-Mar-17 10:33N 40°57' E 024°29'0 0.0
2017-Mar-17 09:32N 40°57' E 024°29'0 0.0
2017-Mar-17 08:31N 40°57' E 024°29'0 0.0
2017-Mar-17 07:32N 40°57' E 024°29'0 0.0
2017-Mar-17 06:32N 40°57' E 024°29'1 0.6
2017-Mar-17 05:33N 40°56' E 024°29'1 0.7
2017-Mar-17 04:33N 40°56' E 024°30'0 0.0
2017-Mar-17 03:32N 40°56' E 024°30'0 0.0
2017-Mar-17 02:30N 40°56' E 024°30'0 0.0
2017-Mar-17 01:31N 40°56' E 024°30'0 0.0
2017-Mar-17 00:31N 40°56' E 024°30'0 0.0
2017-Mar-16 23:28N 40°56' E 024°30'0 0.0
2017-Mar-16 22:33N 40°56' E 024°30'0 0.0
2017-Mar-16 21:30N 40°56' E 024°30'0 0.0
2017-Mar-16 20:30N 40°56' E 024°30'0 0.0
2017-Mar-16 19:30N 40°56' E 024°30'0 0.2
2017-Mar-16 18:33N 40°56' E 024°30'9 9.0
2017-Mar-16 17:33N 40°47' E 024°27'10 9.9
2017-Mar-16 16:33N 40°38' E 024°25'10 9.8
2017-Mar-16 15:33N 40°28' E 024°25'10 9.9
2017-Mar-16 14:33N 40°18' E 024°27'  
Track history (hours):
 
Tides and Currents Weather Stations Pressure Air Temp Water Temp Dewpoint Dewpoint Depression Visibility Wind Speed Wind Dir Waves Ship Positions

Fahri Eksioglu

Last reported at 2017-Mar-26 09:33 UTC. Time now 2017-Mar-29 09:09 UTC.
Position N 38°21' E 023°49'.

Length 87 m; draft 5.3 m.

Type: Cargo ship. MMSI: 271000450.

Date/timePositionNaut miles runAvg speedWind from/ knotsBaromVisibWave heightAir tempDewpointWater temp
2017-Mar-26 09:33N 38°21' E 023°49'20 9.4
2017-Mar-26 07:29N 38°09' E 024°08'9 9.6
2017-Mar-26 06:31N 38°00' E 024°12'  
2017-Mar-18 16:18N 40°17' E 025°15'910.0
2017-Mar-18 15:22N 40°22' E 025°05'10 9.7
2017-Mar-18 14:21N 40°26' E 024°53'910.0
2017-Mar-18 13:26N 40°30' E 024°42'8 9.7
2017-Mar-18 12:33N 40°34' E 024°33'10 9.6
2017-Mar-18 11:33N 40°42' E 024°25'10 9.8
2017-Mar-18 10:33N 40°51' E 024°28'6 5.7
2017-Mar-18 09:33N 40°57' E 024°29'0 0.0
2017-Mar-18 08:32N 40°57' E 024°29'0 0.0
2017-Mar-18 07:32N 40°57' E 024°29'0 0.0
2017-Mar-18 06:32N 40°57' E 024°29'0 0.0
2017-Mar-18 05:31N 40°57' E 024°29'0 0.0
2017-Mar-18 04:32N 40°57' E 024°29'0 0.0
2017-Mar-18 03:31N 40°57' E 024°29'0 0.0
2017-Mar-18 02:30N 40°57' E 024°29'0 0.0
2017-Mar-18 01:28N 40°57' E 024°29'0 0.0
2017-Mar-18 00:33N 40°57' E 024°29'0 0.0
2017-Mar-17 23:26N 40°57' E 024°29'0 0.0
2017-Mar-17 22:33N 40°57' E 024°29'0 0.0
2017-Mar-17 21:32N 40°57' E 024°29'0 0.0
2017-Mar-17 20:29N 40°57' E 024°29'0 0.0
2017-Mar-17 19:33N 40°57' E 024°29'0 0.0
2017-Mar-17 18:32N 40°57' E 024°29'0 0.0
2017-Mar-17 17:28N 40°57' E 024°29'0 0.0
2017-Mar-17 16:30N 40°57' E 024°29'0 0.0
2017-Mar-17 15:29N 40°57' E 024°29'0 0.0
2017-Mar-17 14:30N 40°57' E 024°29'0 0.0
2017-Mar-17 13:32N 40°57' E 024°29'0 0.0
2017-Mar-17 12:33N 40°57' E 024°29'0 0.0
2017-Mar-17 11:21N 40°57' E 024°29'0 0.0
2017-Mar-17 10:33N 40°57' E 024°29'0 0.0
2017-Mar-17 09:32N 40°57' E 024°29'0 0.0
2017-Mar-17 08:31N 40°57' E 024°29'0 0.0
2017-Mar-17 07:32N 40°57' E 024°29'0 0.0
2017-Mar-17 06:32N 40°57' E 024°29'1 0.6
2017-Mar-17 05:33N 40°56' E 024°29'1 0.7
2017-Mar-17 04:33N 40°56' E 024°30'0 0.0
2017-Mar-17 03:32N 40°56' E 024°30'0 0.0
2017-Mar-17 02:30N 40°56' E 024°30'0 0.0
2017-Mar-17 01:31N 40°56' E 024°30'0 0.0
2017-Mar-17 00:31N 40°56' E 024°30'0 0.0
2017-Mar-16 23:28N 40°56' E 024°30'0 0.0
2017-Mar-16 22:33N 40°56' E 024°30'0 0.0
2017-Mar-16 21:30N 40°56' E 024°30'0 0.0
2017-Mar-16 20:30N 40°56' E 024°30'0 0.0
2017-Mar-16 19:30N 40°56' E 024°30'0 0.2
2017-Mar-16 18:33N 40°56' E 024°30'9 9.0
2017-Mar-16 17:33N 40°47' E 024°27'10 9.9
2017-Mar-16 16:33N 40°38' E 024°25'10 9.8
2017-Mar-16 15:33N 40°28' E 024°25'10 9.9
2017-Mar-16 14:33N 40°18' E 024°27'  

Dump ship's entire track history